createdAt,value
2023-05-23T00:01:50.867Z,13.40
2023-05-23T00:04:18.897Z,11.83
2023-05-23T00:06:50.821Z,16.53
2023-05-23T00:09:18.102Z,14.83
2023-05-23T00:11:45.687Z,14.20
2023-05-23T00:14:16.159Z,13.10
2023-05-23T00:16:45.214Z,15.13
2023-05-23T00:19:15.129Z,15.10
2023-05-23T00:21:51.321Z,14.87
2023-05-23T00:24:20.576Z,16.13
2023-05-23T00:26:47.660Z,17.43
2023-05-23T00:29:18.290Z,15.77
2023-05-23T00:31:46.804Z,12.90
2023-05-23T00:34:18.036Z,13.77
2023-05-23T00:36:48.215Z,13.70
2023-05-23T00:39:20.078Z,12.33
2023-05-23T00:41:52.697Z,11.70
2023-05-23T00:44:21.372Z,10.83
2023-05-23T00:46:53.451Z,11.07
2023-05-23T00:49:21.218Z,8.17
2023-05-23T00:51:49.940Z,9.53
2023-05-23T00:54:21.224Z,11.47
2023-05-23T00:56:48.824Z,14.83
2023-05-23T00:59:17.263Z,14.07
2023-05-23T01:01:47.447Z,11.93
2023-05-23T01:04:16.970Z,16.93
2023-05-23T01:06:47.207Z,19.57
2023-05-23T01:09:18.565Z,15.80
2023-05-23T01:12:10.611Z,19.83
2023-05-23T01:14:51.998Z,14.27
2023-05-23T01:17:32.280Z,23.60
2023-05-23T01:20:09.104Z,14.93
2023-05-23T01:22:50.709Z,18.03
2023-05-23T01:26:02.622Z,14.13
2023-05-23T01:28:38.181Z,15.83
2023-05-23T01:31:08.304Z,18.67
2023-05-23T01:33:36.450Z,17.10
2023-05-23T01:36:04.146Z,14.53
2023-05-23T01:38:31.118Z,21.47
2023-05-23T01:40:58.497Z,19.90
2023-05-23T01:43:26.133Z,15.37
2023-05-23T01:45:55.508Z,17.37
2023-05-23T01:48:23.656Z,19.80
2023-05-23T01:50:51.324Z,13.87
2023-05-23T01:53:22.536Z,14.37
2023-05-23T01:55:50.475Z,13.30
2023-05-23T01:58:17.719Z,13.40
2023-05-23T02:00:45.254Z,13.63
2023-05-23T02:03:12.425Z,13.17
2023-05-23T02:05:39.792Z,12.73
2023-05-23T02:08:07.390Z,13.43
2023-05-23T02:10:34.496Z,12.93
2023-05-23T02:13:01.475Z,11.87
2023-05-23T02:15:28.470Z,18.43
2023-05-23T02:17:55.405Z,12.73
2023-05-23T02:20:22.419Z,11.10
2023-05-23T02:22:49.336Z,10.33
2023-05-23T02:25:16.350Z,13.20
2023-05-23T02:27:43.683Z,13.67
2023-05-23T02:30:11.231Z,31.30
2023-05-23T02:32:38.249Z,19.20
2023-05-23T02:35:06.321Z,16.40
2023-05-23T02:37:33.280Z,16.70
2023-05-23T02:40:01.594Z,13.07
2023-05-23T02:42:28.573Z,13.53
2023-05-23T02:44:55.633Z,15.50
2023-05-23T02:47:23.032Z,17.33
2023-05-23T02:49:50.009Z,12.13
2023-05-23T02:52:17.225Z,17.73
2023-05-23T02:54:44.141Z,12.00
2023-05-23T02:57:11.452Z,10.37
2023-05-23T02:59:38.371Z,16.00
2023-05-23T03:02:05.585Z,13.70
2023-05-23T03:04:32.441Z,12.30
2023-05-23T03:06:59.677Z,9.77
2023-05-23T03:09:27.037Z,17.10
2023-05-23T03:11:54.428Z,15.73
2023-05-23T03:14:21.351Z,13.03
2023-05-23T03:16:48.857Z,16.37
2023-05-23T03:19:15.840Z,15.20
2023-05-23T03:21:44.387Z,13.00
2023-05-23T03:24:11.850Z,13.00
2023-05-23T03:26:39.195Z,14.63
2023-05-23T03:29:06.644Z,15.37
2023-05-23T03:31:34.013Z,15.90
2023-05-23T03:34:00.936Z,16.23
2023-05-23T03:36:28.448Z,23.37
2023-05-23T03:38:55.862Z,18.20
2023-05-23T03:41:22.732Z,23.90
2023-05-23T03:43:50.157Z,68.67
2023-05-23T03:46:17.166Z,90.13
2023-05-23T03:48:44.778Z,55.57
2023-05-23T03:51:13.521Z,40.80
2023-05-23T03:53:40.514Z,68.57
2023-05-23T03:56:07.472Z,65.43
2023-05-23T03:58:34.467Z,135.33
2023-05-23T04:01:02.269Z,88.23
2023-05-23T04:03:33.055Z,65.67
2023-05-23T04:06:01.046Z,48.97
2023-05-23T04:08:29.652Z,44.73
2023-05-23T04:10:56.604Z,30.93
2023-05-23T04:13:25.018Z,45.03
2023-05-23T04:15:52.730Z,20.07
2023-05-23T04:18:20.112Z,15.93
2023-05-23T04:20:47.033Z,26.47
2023-05-23T04:23:14.270Z,17.47
2023-05-23T04:25:41.510Z,30.00
2023-05-23T04:28:10.559Z,17.93
2023-05-23T04:30:37.495Z,19.27
2023-05-23T04:33:04.554Z,15.43
2023-05-23T04:35:34.242Z,38.27
2023-05-23T04:38:02.115Z,23.87
2023-05-23T04:40:29.744Z,16.07
2023-05-23T04:42:57.297Z,13.80
2023-05-23T04:45:24.251Z,11.60
2023-05-23T04:47:51.461Z,13.90
2023-05-23T04:50:19.123Z,16.07
2023-05-23T04:52:47.085Z,14.70
2023-05-23T04:55:14.194Z,16.53
2023-05-23T04:57:41.177Z,18.00
2023-05-23T05:00:11.644Z,19.73
2023-05-23T05:02:40.356Z,18.03
2023-05-23T05:05:07.910Z,13.63
2023-05-23T05:07:35.866Z,10.07
2023-05-23T05:10:03.845Z,16.70
2023-05-23T05:12:30.865Z,21.37
2023-05-23T05:14:57.817Z,17.63
2023-05-23T05:17:25.089Z,28.07
2023-05-23T05:19:52.173Z,17.63
2023-05-23T05:22:19.113Z,28.03
2023-05-23T05:24:46.173Z,26.00
2023-05-23T05:27:13.204Z,23.20
2023-05-23T05:29:40.160Z,22.43
2023-05-23T05:32:09.162Z,26.23
2023-05-23T05:34:38.001Z,19.80
2023-05-23T05:37:05.436Z,14.33
2023-05-23T05:39:32.393Z,22.00
2023-05-23T05:42:01.441Z,19.30
2023-05-23T05:44:28.387Z,14.27
2023-05-23T05:46:55.800Z,19.30
2023-05-23T05:49:22.793Z,19.60
2023-05-23T05:51:49.804Z,21.37
2023-05-23T05:54:18.393Z,16.77
2023-05-23T05:56:47.343Z,14.70
2023-05-23T05:59:14.701Z,19.03
2023-05-23T06:01:41.738Z,16.77
2023-05-23T06:04:09.391Z,17.30
2023-05-23T06:06:36.699Z,14.93
2023-05-23T06:09:04.120Z,18.97
2023-05-23T06:11:32.419Z,17.43
2023-05-23T06:13:59.483Z,31.40
2023-05-23T06:16:26.616Z,42.10
2023-05-23T06:18:53.701Z,30.50
2023-05-23T06:21:20.738Z,23.20
2023-05-23T06:23:48.077Z,24.47
2023-05-23T06:26:15.019Z,25.60
2023-05-23T06:28:42.081Z,27.30
2023-05-23T06:31:11.946Z,30.50
2023-05-23T06:33:42.025Z,26.03
2023-05-23T06:36:09.057Z,26.13
2023-05-23T06:38:35.974Z,21.13
2023-05-23T06:41:03.962Z,16.93
2023-05-23T06:43:30.927Z,15.00
2023-05-23T06:45:58.273Z,25.33
2023-05-23T06:48:25.199Z,26.27
2023-05-23T06:50:52.228Z,21.80
2023-05-23T06:53:19.421Z,23.43
2023-05-23T06:55:46.513Z,25.07
2023-05-23T06:58:13.537Z,21.33
2023-05-23T07:00:41.234Z,20.47
2023-05-23T07:03:08.840Z,26.23
2023-05-23T07:05:39.262Z,27.53
2023-05-23T07:08:08.027Z,25.47
2023-05-23T07:10:35.636Z,21.73
2023-05-23T07:13:03.080Z,21.93
2023-05-23T07:15:30.048Z,23.27
2023-05-23T07:17:57.483Z,12.73
2023-05-23T07:20:24.533Z,17.93
2023-05-23T07:22:52.912Z,26.27
2023-05-23T07:25:19.860Z,23.17
2023-05-23T07:27:46.956Z,16.10
2023-05-23T07:30:14.468Z,10.67
2023-05-23T07:32:41.577Z,12.40
2023-05-23T07:35:08.803Z,10.07
2023-05-23T07:37:35.810Z,9.70
2023-05-23T07:40:02.792Z,13.77
2023-05-23T07:42:30.163Z,8.77
2023-05-23T07:44:57.539Z,10.23
2023-05-23T07:47:24.891Z,9.63
2023-05-23T07:49:52.448Z,9.03
2023-05-23T07:52:19.902Z,7.93
2023-05-23T07:54:47.336Z,10.40
2023-05-23T07:57:16.757Z,8.93
2023-05-23T07:59:44.070Z,8.27
2023-05-23T08:02:11.399Z,10.67
2023-05-23T08:04:40.475Z,9.50
2023-05-23T08:07:09.006Z,6.13
2023-05-23T08:09:36.611Z,11.27
2023-05-23T08:12:04.004Z,8.63
2023-05-23T08:14:49.007Z,8.17
2023-05-23T08:17:18.703Z,6.87
2023-05-23T08:19:46.390Z,8.63
2023-05-23T08:22:13.817Z,7.00
2023-05-23T08:24:41.445Z,6.07
2023-05-23T08:27:09.597Z,19.13
2023-05-23T08:29:37.438Z,9.40
2023-05-23T08:32:04.936Z,11.73
2023-05-23T08:34:33.077Z,6.60
2023-05-23T08:37:01.216Z,9.17
2023-05-23T08:39:28.593Z,10.00
2023-05-23T08:41:55.925Z,5.37
2023-05-23T08:44:23.360Z,8.67
2023-05-23T08:46:53.865Z,8.07
2023-05-23T08:49:23.506Z,5.30
2023-05-23T08:51:54.557Z,9.53
2023-05-23T08:54:22.503Z,6.97
2023-05-23T08:56:50.082Z,8.13
2023-05-23T08:59:17.416Z,5.87
2023-05-23T09:01:46.253Z,4.77
2023-05-23T09:04:13.716Z,10.53
2023-05-23T09:06:41.416Z,5.70
2023-05-23T09:09:09.666Z,6.20
2023-05-23T09:11:36.944Z,5.30
2023-05-23T09:14:08.370Z,6.93
2023-05-23T09:16:35.973Z,5.17
2023-05-23T09:19:14.539Z,7.30
2023-05-23T09:21:45.460Z,5.30
2023-05-23T09:24:13.167Z,6.87
2023-05-23T09:26:40.527Z,8.00
2023-05-23T09:29:08.211Z,5.63
2023-05-23T09:31:35.539Z,12.90
2023-05-23T09:34:02.956Z,8.43
2023-05-23T09:36:32.684Z,8.70
2023-05-23T09:39:05.099Z,8.33
2023-05-23T09:41:34.876Z,4.67
2023-05-23T09:44:08.546Z,5.03
2023-05-23T09:46:39.069Z,7.90
2023-05-23T09:49:17.450Z,6.70
2023-05-23T09:51:45.114Z,7.97
2023-05-23T09:54:12.433Z,5.57
2023-05-23T09:56:43.764Z,6.27
2023-05-23T09:59:16.234Z,6.23
2023-05-23T10:01:48.285Z,6.47
2023-05-23T10:04:23.661Z,7.60
2023-05-23T10:06:55.072Z,9.33
2023-05-23T10:09:24.210Z,4.80
2023-05-23T10:11:59.768Z,5.90
2023-05-23T10:14:30.115Z,4.90
2023-05-23T10:17:10.549Z,6.33
2023-05-23T10:19:47.391Z,10.87
2023-05-23T10:22:16.964Z,7.20
2023-05-23T10:24:46.821Z,11.23
2023-05-23T10:27:14.486Z,4.93
2023-05-23T10:29:42.237Z,7.13
2023-05-23T10:32:10.599Z,5.83
2023-05-23T10:35:16.677Z,4.53
2023-05-23T10:37:54.091Z,8.67
2023-05-23T10:40:47.556Z,5.57
2023-05-23T10:43:31.082Z,9.70
2023-05-23T10:45:58.142Z,5.83
2023-05-23T10:48:35.574Z,6.97
2023-05-23T10:51:15.966Z,6.83
2023-05-23T10:53:44.852Z,5.73
2023-05-23T10:56:23.691Z,6.67
2023-05-23T10:58:55.633Z,6.50
2023-05-23T11:01:23.811Z,7.40
2023-05-23T11:03:54.812Z,6.30
2023-05-23T11:06:45.121Z,6.70
2023-05-23T11:09:22.383Z,5.73
2023-05-23T11:12:15.804Z,5.60
2023-05-23T11:14:48.609Z,5.97
2023-05-23T11:17:17.804Z,8.23
2023-05-23T11:20:02.540Z,6.27
2023-05-23T11:22:30.969Z,4.03
2023-05-23T11:24:59.407Z,4.87
2023-05-23T11:27:26.826Z,6.40
2023-05-23T11:30:02.258Z,5.90
2023-05-23T11:32:31.410Z,5.43
2023-05-23T11:35:06.621Z,9.10
2023-05-23T11:37:34.249Z,6.47
2023-05-23T11:40:34.094Z,6.00
2023-05-23T11:43:03.922Z,5.67
2023-05-23T11:45:34.481Z,6.20
2023-05-23T11:48:13.236Z,7.93
2023-05-23T11:50:51.947Z,5.55
2023-05-23T11:53:21.955Z,6.40
2023-05-23T11:55:58.331Z,6.73
2023-05-23T11:58:31.269Z,4.93
2023-05-23T12:01:09.632Z,6.43
2023-05-23T12:03:46.863Z,4.87
2023-05-23T12:06:24.973Z,5.93
2023-05-23T12:08:52.814Z,6.57
2023-05-23T12:11:20.244Z,4.10
2023-05-23T12:13:47.546Z,6.17
2023-05-23T12:16:17.913Z,8.20
2023-05-23T12:18:45.744Z,5.63
2023-05-23T12:21:13.161Z,7.13
2023-05-23T12:23:40.860Z,4.83
2023-05-23T12:26:10.183Z,6.43
2023-05-23T12:28:37.685Z,6.40
2023-05-23T12:31:12.582Z,5.80
2023-05-23T12:33:41.379Z,5.33
2023-05-23T12:36:08.837Z,3.87
2023-05-23T12:38:38.045Z,6.67
2023-05-23T12:41:27.389Z,7.20
2023-05-23T12:43:56.748Z,9.87
2023-05-23T12:46:25.560Z,7.83
2023-05-23T12:48:53.291Z,6.33
2023-05-23T12:51:21.171Z,7.83
2023-05-23T12:53:48.317Z,7.57
2023-05-23T12:56:15.459Z,8.80
2023-05-23T12:58:43.638Z,7.00
2023-05-23T13:01:11.373Z,7.30
2023-05-23T13:03:38.959Z,6.30
2023-05-23T13:06:06.953Z,7.13
2023-05-23T13:08:34.256Z,7.53
2023-05-23T13:11:01.328Z,5.30
2023-05-23T13:13:28.384Z,6.07
2023-05-23T13:15:56.382Z,6.40
2023-05-23T13:18:23.814Z,5.97
2023-05-23T13:20:51.237Z,5.90
2023-05-23T13:23:18.338Z,3.73
2023-05-23T13:25:45.371Z,5.17
2023-05-23T13:28:12.691Z,5.43
2023-05-23T13:30:40.161Z,9.17
2023-05-23T13:33:07.880Z,12.20
2023-05-23T13:35:35.312Z,12.43
2023-05-23T13:38:02.337Z,11.40
2023-05-23T13:40:29.766Z,7.40
2023-05-23T13:42:57.381Z,6.97
2023-05-23T13:45:25.187Z,5.60
2023-05-23T13:47:52.656Z,31.63
2023-05-23T13:50:19.849Z,12.13
2023-05-23T13:52:49.287Z,12.53
2023-05-23T13:55:17.661Z,7.43
2023-05-23T13:57:45.213Z,6.27
2023-05-23T14:00:12.742Z,7.60
2023-05-23T14:02:39.913Z,4.63
2023-05-23T14:05:10.157Z,8.57
2023-05-23T14:07:37.179Z,6.70
2023-05-23T14:10:05.295Z,5.47
2023-05-23T14:12:32.394Z,7.40
2023-05-23T14:14:59.408Z,7.60
2023-05-23T14:17:26.936Z,9.67
2023-05-23T14:19:53.960Z,6.63
2023-05-23T14:22:20.985Z,6.70
2023-05-23T14:24:48.602Z,6.27
2023-05-23T14:27:16.160Z,6.10
2023-05-23T14:29:46.922Z,6.90
2023-05-23T14:32:14.447Z,10.00
2023-05-23T14:34:41.833Z,8.00
2023-05-23T14:37:09.111Z,6.27
2023-05-23T14:39:36.299Z,10.33
2023-05-23T14:42:03.430Z,6.57
2023-05-23T14:44:30.638Z,6.37
2023-05-23T14:46:57.687Z,6.83
2023-05-23T14:49:25.408Z,7.57
2023-05-23T14:51:52.724Z,5.87
2023-05-23T14:54:19.887Z,7.73
2023-05-23T14:56:47.342Z,6.40
2023-05-23T14:59:14.441Z,6.57
2023-05-23T15:01:41.876Z,6.27
2023-05-23T15:04:10.044Z,5.47
2023-05-23T15:06:38.784Z,8.33
2023-05-23T15:09:06.183Z,9.17
2023-05-23T15:11:35.096Z,17.90
2023-05-23T15:14:02.308Z,7.50
2023-05-23T15:16:33.191Z,5.93
2023-05-23T15:19:00.966Z,5.93
2023-05-23T15:21:28.667Z,7.90
2023-05-23T15:23:55.939Z,6.33
2023-05-23T15:26:22.842Z,8.03
2023-05-23T15:28:49.826Z,7.13
2023-05-23T15:31:17.245Z,9.10
2023-05-23T15:33:44.751Z,7.80
2023-05-23T15:36:13.464Z,8.30
2023-05-23T15:38:40.884Z,6.90
2023-05-23T15:41:07.932Z,8.47
2023-05-23T15:43:37.711Z,6.80
2023-05-23T15:46:05.543Z,5.70
2023-05-23T15:48:32.585Z,8.63
2023-05-23T15:50:59.876Z,7.77
2023-05-23T15:53:26.916Z,10.63
2023-05-23T15:55:54.414Z,9.07
2023-05-23T15:58:21.676Z,8.93
2023-05-23T16:00:49.046Z,8.67
2023-05-23T16:03:16.114Z,7.93
2023-05-23T16:05:43.306Z,7.23
2023-05-23T16:08:10.527Z,5.27
2023-05-23T16:10:37.917Z,7.17
2023-05-23T16:13:05.223Z,8.63
2023-05-23T16:15:32.206Z,7.10
2023-05-23T16:18:00.030Z,5.93
2023-05-23T16:20:27.105Z,9.87
2023-05-23T16:22:53.986Z,6.30
2023-05-23T16:25:20.952Z,6.37
2023-05-23T16:27:47.973Z,5.53
2023-05-23T16:30:15.106Z,7.50
2023-05-23T16:32:42.119Z,8.43
2023-05-23T16:35:11.147Z,8.57
2023-05-23T16:37:38.834Z,9.80
2023-05-23T16:40:06.718Z,6.13
2023-05-23T16:42:33.868Z,7.60
2023-05-23T16:45:00.971Z,5.70
2023-05-23T16:47:27.953Z,4.87
2023-05-23T16:49:55.350Z,6.07
2023-05-23T16:52:22.504Z,33.23
2023-05-23T16:54:49.562Z,14.17
2023-05-23T16:57:16.538Z,6.90
2023-05-23T16:59:43.566Z,5.83
2023-05-23T17:02:15.057Z,7.93
2023-05-23T17:04:42.234Z,5.17
2023-05-23T17:07:09.778Z,8.03
2023-05-23T17:09:37.307Z,8.03
2023-05-23T17:12:04.584Z,6.67
2023-05-23T17:14:32.076Z,6.97
2023-05-23T17:16:59.032Z,6.27
2023-05-23T17:19:26.375Z,7.10
2023-05-23T17:21:53.633Z,6.80
2023-05-23T17:24:20.581Z,8.23
2023-05-23T17:26:47.584Z,5.90
2023-05-23T17:29:16.443Z,7.73
2023-05-23T17:31:43.944Z,7.97
2023-05-23T17:34:12.525Z,7.57
2023-05-23T17:36:39.508Z,5.17
2023-05-23T17:39:07.249Z,6.70
2023-05-23T17:41:34.223Z,7.60
2023-05-23T17:44:02.447Z,7.13
2023-05-23T17:46:29.523Z,6.40
2023-05-23T17:48:56.752Z,6.03
2023-05-23T17:51:24.020Z,10.97
2023-05-23T17:53:53.740Z,7.87
2023-05-23T17:56:24.953Z,8.80
2023-05-23T17:58:52.791Z,31.47
2023-05-23T18:01:19.820Z,7.40
2023-05-23T18:03:47.256Z,9.13
2023-05-23T18:06:14.351Z,5.77
2023-05-23T18:08:41.913Z,6.43
2023-05-23T18:11:08.989Z,5.60
2023-05-23T18:13:36.148Z,6.53
2023-05-23T18:16:03.176Z,5.63
2023-05-23T18:18:30.233Z,7.07
2023-05-23T18:20:57.637Z,7.57
2023-05-23T18:23:24.703Z,5.13
2023-05-23T18:25:52.102Z,9.83
2023-05-23T18:28:19.278Z,8.03
2023-05-23T18:30:46.345Z,7.13
2023-05-23T18:33:13.739Z,10.67
2023-05-23T18:35:41.189Z,7.57
2023-05-23T18:38:08.304Z,10.23
2023-05-23T18:40:35.275Z,5.90
2023-05-23T18:43:02.226Z,6.67
2023-05-23T18:45:29.231Z,6.77
2023-05-23T18:47:56.563Z,7.07
2023-05-23T18:50:23.751Z,6.70
2023-05-23T18:52:50.972Z,8.77
2023-05-23T18:55:18.087Z,8.23
2023-05-23T18:57:45.016Z,7.07
2023-05-23T19:00:12.651Z,6.27
2023-05-23T19:02:44.470Z,6.70
2023-05-23T19:05:12.687Z,6.83
2023-05-23T19:07:39.861Z,7.67
2023-05-23T19:10:07.314Z,6.93
2023-05-23T19:12:34.467Z,7.83
2023-05-23T19:15:01.413Z,6.40
2023-05-23T19:17:28.403Z,6.60
2023-05-23T19:19:55.692Z,7.10
2023-05-23T19:22:23.049Z,7.17
2023-05-23T19:24:50.092Z,20.13
2023-05-23T19:27:17.032Z,8.23
2023-05-23T19:29:44.671Z,8.10
2023-05-23T19:32:11.857Z,6.30
2023-05-23T19:34:38.897Z,8.80
2023-05-23T19:37:06.208Z,6.87
2023-05-23T19:39:33.222Z,9.20
2023-05-23T19:42:00.227Z,8.30
2023-05-23T19:44:27.142Z,6.63
2023-05-23T19:46:54.121Z,7.80
2023-05-23T19:49:21.159Z,8.83
2023-05-23T19:51:48.122Z,9.10
2023-05-23T19:54:15.507Z,8.43
2023-05-23T19:56:42.563Z,7.43
2023-05-23T19:59:09.630Z,8.73
2023-05-23T20:01:36.709Z,9.00
2023-05-23T20:04:03.907Z,7.40
2023-05-23T20:06:31.420Z,6.70
2023-05-23T20:08:58.363Z,7.17
2023-05-23T20:11:27.142Z,7.53
2023-05-23T20:13:54.226Z,9.27
2023-05-23T20:16:21.280Z,7.97
2023-05-23T20:18:48.425Z,5.43
2023-05-23T20:21:15.712Z,7.57
2023-05-23T20:23:45.165Z,5.60
2023-05-23T20:26:12.485Z,7.40
2023-05-23T20:28:39.602Z,8.33
2023-05-23T20:31:07.155Z,7.83
2023-05-23T20:33:36.785Z,7.93
2023-05-23T20:36:04.860Z,9.33
2023-05-23T20:38:34.110Z,6.07
2023-05-23T20:41:06.651Z,5.90
2023-05-23T20:43:37.483Z,9.73
2023-05-23T20:46:09.436Z,10.83
2023-05-23T20:48:36.469Z,7.63
2023-05-23T20:51:05.792Z,7.07
2023-05-23T20:53:33.273Z,6.10
2023-05-23T20:56:01.306Z,8.50
2023-05-23T20:58:28.282Z,5.83
2023-05-23T21:00:55.991Z,9.00
2023-05-23T21:03:23.170Z,7.57
2023-05-23T21:05:50.222Z,6.93
2023-05-23T21:08:17.158Z,5.90
2023-05-23T21:10:45.818Z,9.53
2023-05-23T21:13:16.162Z,6.23
2023-05-23T21:15:43.202Z,6.23
2023-05-23T21:18:10.486Z,9.00
2023-05-23T21:20:37.482Z,10.20
2023-05-23T21:23:04.409Z,8.10
2023-05-23T21:25:31.430Z,6.07
2023-05-23T21:27:58.486Z,7.20
2023-05-23T21:30:26.464Z,7.63
2023-05-23T21:32:53.573Z,11.17
2023-05-23T21:35:20.853Z,12.27
2023-05-23T21:37:47.844Z,8.63
2023-05-23T21:40:14.862Z,13.40
2023-05-23T21:42:41.872Z,12.03
2023-05-23T21:45:09.384Z,7.80
2023-05-23T21:47:36.389Z,8.70
2023-05-23T21:50:06.324Z,9.30
2023-05-23T21:52:33.334Z,5.73
2023-05-23T21:55:00.315Z,10.80
2023-05-23T21:57:27.274Z,9.17
2023-05-23T21:59:54.236Z,13.17
2023-05-23T22:02:21.322Z,6.87
2023-05-23T22:04:48.717Z,7.33
2023-05-23T22:07:15.809Z,8.60
2023-05-23T22:09:42.708Z,7.00
2023-05-23T22:12:09.864Z,6.90
2023-05-23T22:14:36.836Z,7.77
2023-05-23T22:17:04.427Z,9.07
2023-05-23T22:19:31.423Z,6.30
2023-05-23T22:21:58.428Z,7.80
2023-05-23T22:24:26.386Z,6.67
2023-05-23T22:26:53.415Z,6.23
2023-05-23T22:29:21.192Z,6.57
2023-05-23T22:31:48.644Z,7.43
2023-05-23T22:34:15.783Z,5.27
2023-05-23T22:36:42.744Z,6.70
2023-05-23T22:39:09.786Z,6.83
2023-05-23T22:41:36.721Z,7.23
2023-05-23T22:44:03.764Z,8.37
2023-05-23T22:46:30.926Z,6.90
2023-05-23T22:48:58.229Z,6.07
2023-05-23T22:51:25.146Z,9.80
2023-05-23T22:53:53.052Z,5.90
2023-05-23T22:56:20.072Z,6.60
2023-05-23T22:58:47.006Z,7.40
2023-05-23T23:01:14.132Z,6.50
2023-05-23T23:03:41.443Z,7.30
2023-05-23T23:06:09.469Z,8.20
2023-05-23T23:08:37.836Z,6.00
2023-05-23T23:11:04.923Z,9.40
2023-05-23T23:13:31.986Z,7.70
2023-05-23T23:15:58.878Z,8.13
2023-05-23T23:18:27.038Z,6.40
2023-05-23T23:20:56.809Z,6.80
2023-05-23T23:23:23.970Z,8.93
2023-05-23T23:25:52.481Z,8.37
2023-05-23T23:28:19.903Z,7.00
2023-05-23T23:30:47.009Z,9.63
2023-05-23T23:33:14.739Z,12.57
2023-05-23T23:35:45.407Z,13.03
2023-05-23T23:38:12.584Z,10.97
2023-05-23T23:40:39.630Z,12.77
2023-05-23T23:43:06.597Z,10.90
2023-05-23T23:45:33.627Z,9.27
2023-05-23T23:48:00.575Z,13.53
2023-05-23T23:50:27.702Z,9.37
2023-05-23T23:52:54.749Z,10.57
2023-05-23T23:55:21.742Z,12.13
2023-05-23T23:57:48.829Z,15.33
